Cornucopia Destiny — WDE6386 — position and weather

sailwx.info

Track history (hours):
 
Tides and Currents Weather Stations Pressure Air Temp Water Temp Dewpoint Dewpoint Depression Visibility Wind Speed Wind Dir Waves Ship Positions

Cornucopia Destiny

Owner: Sultan Wholesale LLC, Keyport, NJ. More information available from US FCC via Universal Licensing System and Coast Guard Vessel Documentation Center.

Last reported at 2016-Jun-27 00:14 UTC. Time now 2016-Jun-29 18:21 UTC.
Position N 40°43' W 074°02'.

Length 39 m.

Type: Passenger vessel. MMSI: 367379570.

Date/timePositionNaut miles runAvg speedWind from/ knotsBaromVisibWave heightAir tempDewpointWater temp
2016-Jun-27 00:14N 40°43' W 074°02'1 1.8
2016-Jun-26 23:32N 40°42' W 074°02'0 0.0
2016-Jun-26 07:20N 40°42' W 074°01'1 1.4
2016-Jun-26 06:28N 40°41' W 074°02'3 1.3
2016-Jun-26 04:15N 40°44' W 074°01'0 0.1
2016-Jun-26 02:26N 40°44' W 074°01'2 2.1
2016-Jun-26 01:17N 40°42' W 074°01'  
2016-Jun-21 04:32N 40°46' W 074°01'0 0.0
2016-Jun-21 03:33N 40°46' W 074°01'0 0.4
2016-Jun-21 02:31N 40°45' W 074°01'0 0.0
2016-Jun-20 20:32N 40°45' W 074°01'0 0.0
2016-Jun-20 18:15N 40°45' W 074°01'0 0.0
2016-Jun-20 13:31N 40°45' W 074°01'0 0.0
2016-Jun-20 12:15N 40°45' W 074°01'0 0.0
2016-Jun-20 11:32N 40°45' W 074°01'0 0.0
2016-Jun-20 10:31N 40°45' W 074°01'0 0.0
2016-Jun-20 09:23N 40°45' W 074°01'0 0.0
2016-Jun-20 06:26N 40°45' W 074°01'0 0.0
2016-Jun-20 01:11N 40°45' W 074°01'5 7.8
2016-Jun-20 00:33N 40°40' W 074°03'1 0.1
2016-Jun-19 15:33N 40°40' W 074°03'6 2.5
2016-Jun-19 13:18N 40°45' W 074°01'0 0.0
2016-Jun-19 12:33N 40°45' W 074°01'0 0.0
2016-Jun-19 11:33N 40°45' W 074°01'0 0.0
2016-Jun-19 10:33N 40°45' W 074°01'0 0.0
2016-Jun-19 09:33N 40°45' W 074°01'0 0.0
2016-Jun-19 08:33N 40°45' W 074°01'0 0.0
2016-Jun-19 07:33N 40°45' W 074°01'0 0.0
2016-Jun-19 06:33N 40°45' W 074°01'0 0.0
2016-Jun-19 05:33N 40°45' W 074°01'0 0.0
2016-Jun-19 04:33N 40°45' W 074°01'0 0.0
2016-Jun-19 03:33N 40°45' W 074°01'4 3.6
2016-Jun-19 02:28N 40°41' W 074°02'3 2.5
2016-Jun-19 01:14N 40°43' W 073°59'2 2.2
2016-Jun-19 00:29N 40°42' W 074°01'3 3.6
2016-Jun-18 23:33N 40°45' W 074°01'0 0.0
2016-Jun-18 22:33N 40°45' W 074°01'0 0.0
2016-Jun-18 21:33N 40°45' W 074°01'0 0.0
2016-Jun-18 20:33N 40°45' W 074°01'0 0.0
2016-Jun-18 19:33N 40°45' W 074°01'0 0.0
2016-Jun-18 18:33N 40°45' W 074°01'0 0.0
2016-Jun-18 17:34N 40°45' W 074°01'0 0.0
2016-Jun-18 16:33N 40°45' W 074°01'0 0.0
2016-Jun-18 15:33N 40°45' W 074°01'0 0.0
2016-Jun-18 14:33N 40°45' W 074°01'0 0.0
2016-Jun-18 13:34N 40°45' W 074°01'0 0.0
2016-Jun-18 12:34N 40°45' W 074°01'0 0.0
2016-Jun-18 11:34N 40°45' W 074°01'0 0.0
2016-Jun-18 10:33N 40°45' W 074°01'0 0.0
2016-Jun-18 09:34N 40°45' W 074°01'0 0.0
2016-Jun-18 08:33N 40°45' W 074°01'0 0.0
2016-Jun-18 07:33N 40°45' W 074°01'0 0.0
2016-Jun-18 06:34N 40°45' W 074°01'0 0.0
2016-Jun-18 05:33N 40°45' W 074°01'0 0.0
2016-Jun-18 04:33N 40°45' W 074°01'0 0.0
2016-Jun-18 03:34N 40°45' W 074°01'0 0.0
2016-Jun-18 02:34N 40°45' W 074°01'1 0.5
2016-Jun-18 01:33N 40°45' W 074°01'3 2.6
2016-Jun-18 00:26N 40°42' W 074°02'2 2.4
2016-Jun-17 23:29N 40°44' W 074°01'1 1.2
2016-Jun-17 22:34N 40°45' W 074°01'0 0.0
2016-Jun-17 21:34N 40°45' W 074°01'0 0.0
2016-Jun-17 20:34N 40°45' W 074°01'0 0.0
2016-Jun-17 19:34N 40°45' W 074°01'0 0.0
2016-Jun-17 18:34N 40°45' W 074°01'0 0.0
2016-Jun-17 17:33N 40°45' W 074°01'0 0.0
2016-Jun-17 16:32N 40°45' W 074°01'0 0.0
2016-Jun-17 15:33N 40°45' W 074°01'0 0.0
2016-Jun-17 14:33N 40°45' W 074°01'0 0.0
2016-Jun-17 13:33N 40°45' W 074°01'0 0.0
2016-Jun-17 12:33N 40°45' W 074°01'0 0.0
2016-Jun-17 11:33N 40°45' W 074°01'0 0.0
2016-Jun-17 10:33N 40°45' W 074°01'0 0.0
2016-Jun-17 09:33N 40°45' W 074°01'0 0.0
2016-Jun-17 08:33N 40°45' W 074°01'0 0.0
2016-Jun-17 07:33N 40°45' W 074°01'0 0.0
2016-Jun-17 06:33N 40°45' W 074°01'0 0.0
2016-Jun-17 05:33N 40°45' W 074°01'0 0.0
2016-Jun-17 04:33N 40°45' W 074°01'0 0.0
2016-Jun-17 03:33N 40°45' W 074°01'0 0.0
2016-Jun-17 02:33N 40°45' W 074°01'0 0.2
2016-Jun-17 01:28N 40°45' W 074°01'  
Track history (hours):
 
Tides and Currents Weather Stations Pressure Air Temp Water Temp Dewpoint Dewpoint Depression Visibility Wind Speed Wind Dir Waves Ship Positions

Cornucopia Destiny

Owner: Sultan Wholesale LLC, Keyport, NJ. More information available from US FCC via Universal Licensing System and Coast Guard Vessel Documentation Center.

Last reported at 2016-Jun-27 00:14 UTC. Time now 2016-Jun-29 18:21 UTC.
Position N 40°43' W 074°02'.

Length 39 m.

Type: Passenger vessel. MMSI: 367379570.

Date/timePositionNaut miles runAvg speedWind from/ knotsBaromVisibWave heightAir tempDewpointWater temp
2016-Jun-27 00:14N 40°43' W 074°02'1 1.8
2016-Jun-26 23:32N 40°42' W 074°02'0 0.0
2016-Jun-26 07:20N 40°42' W 074°01'1 1.4
2016-Jun-26 06:28N 40°41' W 074°02'3 1.3
2016-Jun-26 04:15N 40°44' W 074°01'0 0.1
2016-Jun-26 02:26N 40°44' W 074°01'2 2.1
2016-Jun-26 01:17N 40°42' W 074°01'  
2016-Jun-21 04:32N 40°46' W 074°01'0 0.0
2016-Jun-21 03:33N 40°46' W 074°01'0 0.4
2016-Jun-21 02:31N 40°45' W 074°01'0 0.0
2016-Jun-20 20:32N 40°45' W 074°01'0 0.0
2016-Jun-20 18:15N 40°45' W 074°01'0 0.0
2016-Jun-20 13:31N 40°45' W 074°01'0 0.0
2016-Jun-20 12:15N 40°45' W 074°01'0 0.0
2016-Jun-20 11:32N 40°45' W 074°01'0 0.0
2016-Jun-20 10:31N 40°45' W 074°01'0 0.0
2016-Jun-20 09:23N 40°45' W 074°01'0 0.0
2016-Jun-20 06:26N 40°45' W 074°01'0 0.0
2016-Jun-20 01:11N 40°45' W 074°01'5 7.8
2016-Jun-20 00:33N 40°40' W 074°03'1 0.1
2016-Jun-19 15:33N 40°40' W 074°03'6 2.5
2016-Jun-19 13:18N 40°45' W 074°01'0 0.0
2016-Jun-19 12:33N 40°45' W 074°01'0 0.0
2016-Jun-19 11:33N 40°45' W 074°01'0 0.0
2016-Jun-19 10:33N 40°45' W 074°01'0 0.0
2016-Jun-19 09:33N 40°45' W 074°01'0 0.0
2016-Jun-19 08:33N 40°45' W 074°01'0 0.0
2016-Jun-19 07:33N 40°45' W 074°01'0 0.0
2016-Jun-19 06:33N 40°45' W 074°01'0 0.0
2016-Jun-19 05:33N 40°45' W 074°01'0 0.0
2016-Jun-19 04:33N 40°45' W 074°01'0 0.0
2016-Jun-19 03:33N 40°45' W 074°01'4 3.6
2016-Jun-19 02:28N 40°41' W 074°02'3 2.5
2016-Jun-19 01:14N 40°43' W 073°59'2 2.2
2016-Jun-19 00:29N 40°42' W 074°01'3 3.6
2016-Jun-18 23:33N 40°45' W 074°01'0 0.0
2016-Jun-18 22:33N 40°45' W 074°01'0 0.0
2016-Jun-18 21:33N 40°45' W 074°01'0 0.0
2016-Jun-18 20:33N 40°45' W 074°01'0 0.0
2016-Jun-18 19:33N 40°45' W 074°01'0 0.0
2016-Jun-18 18:33N 40°45' W 074°01'0 0.0
2016-Jun-18 17:34N 40°45' W 074°01'0 0.0
2016-Jun-18 16:33N 40°45' W 074°01'0 0.0
2016-Jun-18 15:33N 40°45' W 074°01'0 0.0
2016-Jun-18 14:33N 40°45' W 074°01'0 0.0
2016-Jun-18 13:34N 40°45' W 074°01'0 0.0
2016-Jun-18 12:34N 40°45' W 074°01'0 0.0
2016-Jun-18 11:34N 40°45' W 074°01'0 0.0
2016-Jun-18 10:33N 40°45' W 074°01'0 0.0
2016-Jun-18 09:34N 40°45' W 074°01'0 0.0
2016-Jun-18 08:33N 40°45' W 074°01'0 0.0
2016-Jun-18 07:33N 40°45' W 074°01'0 0.0
2016-Jun-18 06:34N 40°45' W 074°01'0 0.0
2016-Jun-18 05:33N 40°45' W 074°01'0 0.0
2016-Jun-18 04:33N 40°45' W 074°01'0 0.0
2016-Jun-18 03:34N 40°45' W 074°01'0 0.0
2016-Jun-18 02:34N 40°45' W 074°01'1 0.5
2016-Jun-18 01:33N 40°45' W 074°01'3 2.6
2016-Jun-18 00:26N 40°42' W 074°02'2 2.4
2016-Jun-17 23:29N 40°44' W 074°01'1 1.2
2016-Jun-17 22:34N 40°45' W 074°01'0 0.0
2016-Jun-17 21:34N 40°45' W 074°01'0 0.0
2016-Jun-17 20:34N 40°45' W 074°01'0 0.0
2016-Jun-17 19:34N 40°45' W 074°01'0 0.0
2016-Jun-17 18:34N 40°45' W 074°01'0 0.0
2016-Jun-17 17:33N 40°45' W 074°01'0 0.0
2016-Jun-17 16:32N 40°45' W 074°01'0 0.0
2016-Jun-17 15:33N 40°45' W 074°01'0 0.0
2016-Jun-17 14:33N 40°45' W 074°01'0 0.0
2016-Jun-17 13:33N 40°45' W 074°01'0 0.0
2016-Jun-17 12:33N 40°45' W 074°01'0 0.0
2016-Jun-17 11:33N 40°45' W 074°01'0 0.0
2016-Jun-17 10:33N 40°45' W 074°01'0 0.0
2016-Jun-17 09:33N 40°45' W 074°01'0 0.0
2016-Jun-17 08:33N 40°45' W 074°01'0 0.0
2016-Jun-17 07:33N 40°45' W 074°01'0 0.0
2016-Jun-17 06:33N 40°45' W 074°01'0 0.0
2016-Jun-17 05:33N 40°45' W 074°01'0 0.0
2016-Jun-17 04:33N 40°45' W 074°01'0 0.0
2016-Jun-17 03:33N 40°45' W 074°01'0 0.0
2016-Jun-17 02:33N 40°45' W 074°01'0 0.2
2016-Jun-17 01:28N 40°45' W 074°01'  

Dump ship's entire track history